Time;durP1;ratioP1;P1;durP2;ratioP2;P2;SDS_P1;SDS_P2;PMS_P1;PMS_P2;Temp;Humidity;BMP_temperature;BMP_pressure;BME280_temperature;BME280_humidity;BME280_pressure;Samples;Min_cycle;Max_cycle;Signal;HPM_P1;HPM_P2
2021/04/28 00:02:01;;;;;;;11.13;5.93;;;;;;;9.24;44.89;98140.16;4955168;29;20202;-72
2021/04/28 00:04:27;;;;;;;7.63;5.85;;;;;;;9.44;44.39;98137.78;4955122;29;20238;-71
2021/04/28 00:06:53;;;;;;;7.80;5.65;;;;;;;9.37;44.45;98140.06;4955255;29;20277;-72
2021/04/28 00:09:20;;;;;;;9.80;6.13;;;;;;;9.46;44.37;98131.31;4954869;28;20195;-72
2021/04/28 00:11:46;;;;;;;5.95;5.15;;;;;;;9.59;44.13;98133.91;4954767;28;20280;-71
2021/04/28 00:14:12;;;;;;;7.63;5.40;;;;;;;9.40;44.60;98131.78;4955401;29;20301;-71
2021/04/28 00:16:38;;;;;;;6.10;5.22;;;;;;;9.34;44.94;98129.59;4955192;29;20226;-70
2021/04/28 00:19:05;;;;;;;8.63;5.53;;;;;;;9.11;45.54;98128.63;4955042;29;20195;-70
2021/04/28 00:21:31;;;;;;;8.68;5.63;;;;;;;9.11;45.58;98124.13;4955277;28;20260;-70
2021/04/28 00:23:58;;;;;;;6.60;5.43;;;;;;;9.09;45.67;98123.38;4955299;29;20297;-71
2021/04/28 00:26:24;;;;;;;8.35;5.70;;;;;;;9.17;45.59;98118.28;4955166;29;20612;-71
2021/04/28 00:28:50;;;;;;;9.90;5.65;;;;;;;9.19;45.56;98115.47;4954390;29;20194;-72
2021/04/28 00:31:16;;;;;;;6.05;5.10;;;;;;;9.10;45.81;98124.22;4955358;29;20194;-71
2021/04/28 00:33:43;;;;;;;5.18;4.68;;;;;;;9.16;45.57;98118.41;4955142;29;20237;-71
2021/04/28 00:36:10;;;;;;;6.43;5.28;;;;;;;9.25;44.98;98116.81;4954845;29;20220;-70
2021/04/28 00:38:36;;;;;;;5.93;4.93;;;;;;;9.05;45.53;98108.47;4955268;28;20194;-70
2021/04/28 00:41:06;;;;;;;8.02;4.93;;;;;;;8.97;45.73;98109.03;4954692;28;20189;-70
2021/04/28 00:43:32;;;;;;;6.60;5.22;;;;;;;8.78;46.34;98103.34;4955142;28;20589;-71
2021/04/28 00:46:00;;;;;;;6.50;5.57;;;;;;;8.86;46.27;98108.97;4954634;29;20222;-71
2021/04/28 00:48:26;;;;;;;8.07;5.45;;;;;;;8.86;46.17;98103.63;4954789;29;20201;-71
2021/04/28 00:50:53;;;;;;;6.75;5.03;;;;;;;8.84;46.48;98110.06;4954960;29;20591;-71
2021/04/28 00:53:22;;;;;;;6.05;5.07;;;;;;;8.94;46.17;98095.84;4954971;29;20386;-71
2021/04/28 00:55:48;;;;;;;5.47;4.97;;;;;;;8.89;46.37;98102.56;4954944;29;20293;-71
2021/04/28 00:58:15;;;;;;;6.53;5.00;;;;;;;8.69;46.71;98094.16;4954783;28;20275;-70
2021/04/28 01:00:43;;;;;;;5.88;5.28;;;;;;;8.68;46.72;98092.44;4954970;29;20206;-71
2021/04/28 01:03:09;;;;;;;10.35;5.63;;;;;;;8.56;47.17;98093.34;4954977;29;20668;-72
2021/04/28 01:05:36;;;;;;;6.38;5.38;;;;;;;8.53;47.38;98089.06;4954624;29;20767;-71
2021/04/28 01:08:03;;;;;;;8.18;5.30;;;;;;;8.53;47.57;98090.91;4954978;28;20590;-71
2021/04/28 01:10:32;;;;;;;7.15;5.13;;;;;;;8.54;47.42;98096.13;4955183;29;20221;-73
2021/04/28 01:12:59;;;;;;;7.25;5.40;;;;;;;8.59;47.48;98098.47;4955088;29;20311;-72
2021/04/28 01:15:28;;;;;;;7.57;5.68;;;;;;;8.38;48.06;98082.09;4955042;28;20189;-72
2021/04/28 01:17:56;;;;;;;7.00;5.60;;;;;;;8.24;48.39;98093.00;4954998;28;20664;-71
2021/04/28 01:20:25;;;;;;;7.60;5.15;;;;;;;8.16;48.83;98098.91;4954440;29;20216;-71
2021/04/28 01:22:53;;;;;;;7.38;5.10;;;;;;;8.01;49.46;98100.03;4957365;28;20291;-71
2021/04/28 01:25:21;;;;;;;7.32;6.00;;;;;;;8.06;49.57;98104.06;4958026;29;20194;-71
2021/04/28 01:27:54;;;;;;;6.63;5.40;;;;;;;8.06;49.43;98101.38;4957872;28;20292;-71
2021/04/28 01:30:21;;;;;;;5.55;4.47;;;;;;;8.22;48.92;98100.28;4957664;29;20288;-70
2021/04/28 01:32:50;;;;;;;5.90;5.18;;;;;;;8.11;49.09;98095.69;4958150;28;20193;-71
2021/04/28 01:35:19;;;;;;;6.50;4.63;;;;;;;7.97;49.49;98094.00;4957791;29;20212;-70
2021/04/28 01:37:47;;;;;;;5.57;5.03;;;;;;;7.92;49.64;98098.84;4957642;29;20217;-71
2021/04/28 01:40:17;;;;;;;5.28;4.75;;;;;;;7.99;49.73;98094.75;4957755;29;20623;-71
2021/04/28 01:42:44;;;;;;;8.02;5.10;;;;;;;7.80;50.31;98094.34;4957858;29;20208;-70
2021/04/28 01:45:13;;;;;;;5.72;5.15;;;;;;;7.68;50.95;98096.91;4957728;28;20186;-71
2021/04/28 01:47:40;;;;;;;6.55;5.25;;;;;;;7.58;51.44;98103.91;4958076;29;20308;-71
2021/04/28 01:50:08;;;;;;;7.88;5.57;;;;;;;7.61;51.46;98090.28;4957566;29;20209;-71
2021/04/28 01:52:35;;;;;;;7.88;5.10;;;;;;;7.82;50.88;98100.44;4957778;29;20228;-72
2021/04/28 01:55:02;;;;;;;9.45;6.15;;;;;;;7.80;50.94;98087.19;4957728;29;20185;-70
2021/04/28 01:57:29;;;;;;;7.60;5.93;;;;;;;7.66;51.52;98090.81;4957657;29;20273;-70
2021/04/28 01:59:56;;;;;;;6.45;5.32;;;;;;;7.57;51.84;98095.97;4957280;29;20285;-71
2021/04/28 02:02:23;;;;;;;6.32;5.22;;;;;;;7.69;51.71;98084.41;4957795;29;20650;-71
2021/04/28 02:04:49;;;;;;;6.07;5.47;;;;;;;7.64;51.58;98087.41;4957638;29;20232;-71
2021/04/28 02:07:17;;;;;;;5.88;5.07;;;;;;;7.63;51.91;98085.69;4957582;29;20272;-72
2021/04/28 02:09:43;;;;;;;9.27;5.72;;;;;;;7.50;52.18;98092.84;4957497;29;20204;-71
2021/04/28 02:12:11;;;;;;;6.28;5.68;;;;;;;7.51;52.11;98103.47;4957400;28;20189;-71
2021/04/28 02:14:40;;;;;;;7.07;5.55;;;;;;;7.38;53.01;98093.72;4957219;29;20199;-72
2021/04/28 02:17:06;;;;;;;6.03;5.43;;;;;;;7.22;53.21;98088.56;4957385;28;20258;-71
2021/04/28 02:19:34;;;;;;;8.38;5.35;;;;;;;7.08;53.85;98084.16;4957313;29;20628;-71
2021/04/28 02:22:02;;;;;;;9.50;6.13;;;;;;;7.14;53.82;98085.53;4957386;29;20672;-70
2021/04/28 02:24:28;;;;;;;6.50;5.50;;;;;;;7.12;54.28;98084.78;4957605;29;20211;-71
2021/04/28 02:26:56;;;;;;;6.55;5.85;;;;;;;7.02;54.38;98085.41;4957215;28;20195;-71
2021/04/28 02:29:22;;;;;;;10.75;5.55;;;;;;;7.18;53.98;98085.22;4957040;29;20561;-71
2021/04/28 02:31:49;;;;;;;8.45;5.50;;;;;;;7.15;53.92;98080.09;4957159;28;20682;-71
2021/04/28 02:34:15;;;;;;;5.88;5.28;;;;;;;7.04;54.65;98083.50;4955960;28;20276;-71
2021/04/28 02:36:44;;;;;;;7.03;5.75;;;;;;;7.02;55.02;98079.22;4957141;29;20295;-71
2021/04/28 02:39:14;;;;;;;8.70;5.55;;;;;;;6.92;55.47;98078.97;4957202;29;20611;-71
2021/04/28 02:41:42;;;;;;;12.32;5.85;;;;;;;6.83;55.52;98080.44;4956893;29;20224;-72
2021/04/28 02:44:10;;;;;;;6.15;5.50;;;;;;;6.56;56.49;98083.16;4956770;29;20210;-71
2021/04/28 02:46:38;;;;;;;6.78;5.50;;;;;;;6.63;56.47;98073.75;4957136;28;20607;-71
2021/04/28 02:49:06;;;;;;;7.43;5.80;;;;;;;6.58;57.07;98078.56;4956691;29;20222;-71
2021/04/28 02:51:33;;;;;;;7.20;5.95;;;;;;;6.72;56.80;98077.63;4956970;29;20568;-71
2021/04/28 02:54:01;;;;;;;9.27;5.70;;;;;;;6.62;56.84;98081.88;4956789;29;20185;-72
2021/04/28 02:56:28;;;;;;;6.75;5.60;;;;;;;6.50;57.85;98077.34;4956572;29;20228;-72
2021/04/28 02:58:54;;;;;;;7.88;6.10;;;;;;;6.58;57.43;98077.69;4956452;29;20258;-71
2021/04/28 03:01:21;;;;;;;8.85;6.00;;;;;;;6.61;57.17;98077.50;4956284;29;20595;-70
2021/04/28 03:03:48;;;;;;;13.77;6.78;;;;;;;6.54;57.56;98078.84;4956370;29;20280;-71
2021/04/28 03:06:16;;;;;;;7.63;6.38;;;;;;;6.55;57.66;98081.41;4956500;29;20650;-71
2021/04/28 03:08:44;;;;;;;8.02;6.40;;;;;;;6.60;57.59;98082.00;4956065;28;20212;-71
2021/04/28 03:11:10;;;;;;;8.07;6.20;;;;;;;6.51;57.84;98084.38;4956766;28;20223;-71
2021/04/28 03:13:37;;;;;;;9.38;5.72;;;;;;;6.46;58.02;98077.53;4956506;28;20204;-71
2021/04/28 03:16:04;;;;;;;10.88;6.20;;;;;;;6.59;57.76;98082.09;4956475;29;20211;-71
2021/04/28 03:18:30;;;;;;;7.93;6.20;;;;;;;6.58;57.78;98075.00;4956032;29;20192;-71
2021/04/28 03:20:59;;;;;;;8.30;6.45;;;;;;;6.48;58.05;98078.28;4956521;29;20552;-70
2021/04/28 03:23:26;;;;;;;7.15;5.88;;;;;;;6.44;57.99;98078.59;4956211;29;20351;-71
2021/04/28 03:25:52;;;;;;;7.78;6.00;;;;;;;6.15;58.90;98080.47;4956159;28;20181;-72
2021/04/28 03:28:18;;;;;;;8.55;6.35;;;;;;;6.16;59.11;98079.53;4956331;28;20629;-71
2021/04/28 03:30:44;;;;;;;7.53;6.35;;;;;;;6.18;59.12;98073.13;4956100;29;20197;-71
2021/04/28 03:33:11;;;;;;;8.07;5.93;;;;;;;6.31;58.92;98081.22;4956105;28;20189;-70
2021/04/28 03:35:38;;;;;;;6.97;6.28;;;;;;;5.98;59.87;98081.56;4956029;28;20207;-71
2021/04/28 03:38:04;;;;;;;7.07;5.80;;;;;;;6.00;60.07;98083.19;4955836;29;20248;-71
2021/04/28 03:40:31;;;;;;;6.60;5.95;;;;;;;5.98;59.87;98089.59;4955813;28;20193;-72
2021/04/28 03:42:58;;;;;;;7.18;5.90;;;;;;;6.13;59.48;98083.25;4956084;29;20247;-71
2021/04/28 03:45:24;;;;;;;8.82;7.07;;;;;;;6.15;59.50;98091.16;4955666;28;20232;-70
2021/04/28 03:47:50;;;;;;;8.13;5.93;;;;;;;6.27;59.39;98093.06;4955625;29;20636;-70
2021/04/28 03:50:16;;;;;;;8.43;6.00;;;;;;;6.44;58.60;98095.50;4955642;29;20283;-71
2021/04/28 03:52:42;;;;;;;6.65;5.90;;;;;;;6.26;59.36;98088.66;4955950;29;20240;-70
2021/04/28 03:55:10;;;;;;;6.93;6.20;;;;;;;6.22;59.38;98103.19;4955966;28;20604;-71
2021/04/28 03:57:37;;;;;;;10.68;6.68;;;;;;;6.10;59.74;98102.16;4955652;28;20286;-71
2021/04/28 04:00:05;;;;;;;6.97;6.22;;;;;;;6.08;59.84;98108.53;4955972;28;20209;-71
2021/04/28 04:02:31;;;;;;;11.48;7.28;;;;;;;6.24;59.63;98103.94;4955313;29;20272;-72
2021/04/28 04:04:59;;;;;;;7.75;6.20;;;;;;;6.10;59.92;98102.16;4955304;28;20714;-71
2021/04/28 04:07:25;;;;;;;8.00;6.40;;;;;;;5.93;60.71;98102.34;4955417;29;20277;-72
2021/04/28 04:09:51;;;;;;;21.67;7.10;;;;;;;5.77;61.14;98103.31;4955333;28;20225;-71
2021/04/28 04:12:18;;;;;;;7.53;5.82;;;;;;;5.68;61.58;98108.38;4955240;29;20227;-71
2021/04/28 04:14:45;;;;;;;11.80;7.10;;;;;;;5.77;61.71;98105.13;4955189;29;20290;-71
2021/04/28 04:17:11;;;;;;;8.23;6.53;;;;;;;5.83;61.45;98100.25;4955403;29;20272;-71
2021/04/28 04:19:37;;;;;;;13.02;7.20;;;;;;;5.77;61.38;98103.31;4955102;28;20219;-71
2021/04/28 04:22:04;;;;;;;7.35;5.88;;;;;;;5.85;61.36;98100.13;4955238;29;20185;-71
2021/04/28 04:24:30;;;;;;;11.65;7.20;;;;;;;5.94;60.80;98104.03;4955100;29;20191;-71
2021/04/28 04:26:56;;;;;;;15.15;7.30;;;;;;;5.96;60.84;98108.38;4955318;29;20552;-71
2021/04/28 04:29:23;;;;;;;9.13;6.93;;;;;;;6.02;60.17;98107.13;4954677;29;20195;-70
2021/04/28 04:31:50;;;;;;;8.23;7.00;;;;;;;5.92;60.38;98109.47;4955464;29;20189;-70
2021/04/28 04:34:16;;;;;;;9.57;6.53;;;;;;;5.80;60.99;98110.25;4954638;29;20212;-71
2021/04/28 04:36:43;;;;;;;8.23;7.18;;;;;;;5.71;61.32;98121.50;4955342;29;20612;-71
2021/04/28 04:39:09;;;;;;;12.48;8.20;;;;;;;5.90;61.20;98116.75;4955113;29;20220;-71
2021/04/28 04:41:35;;;;;;;11.75;7.60;;;;;;;5.83;60.97;98110.94;4955160;28;20208;-72
2021/04/28 04:44:01;;;;;;;10.90;6.95;;;;;;;5.74;61.39;98116.81;4955321;29;20240;-71
2021/04/28 04:46:27;;;;;;;9.70;7.80;;;;;;;5.63;61.86;98113.97;4954315;29;20243;-71
2021/04/28 04:48:54;;;;;;;10.25;7.65;;;;;;;5.60;62.15;98109.66;4954515;28;20494;-71
2021/04/28 04:51:21;;;;;;;11.35;8.57;;;;;;;5.68;62.23;98119.03;4954339;28;20751;-71
2021/04/28 04:53:50;;;;;;;11.60;7.80;;;;;;;5.74;62.00;98106.13;4954713;28;20255;-71
2021/04/28 04:56:16;;;;;;;11.93;9.05;;;;;;;5.93;61.50;98108.53;4954877;28;20244;-71
2021/04/28 04:58:42;;;;;;;12.68;8.48;;;;;;;6.13;61.20;98109.09;4958303;28;20281;-71
2021/04/28 05:01:08;;;;;;;14.23;9.38;;;;;;;6.16;60.87;98103.59;4958660;29;20204;-72
2021/04/28 05:03:34;;;;;;;14.80;10.15;;;;;;;6.42;59.83;98109.91;4958656;28;20247;-72
2021/04/28 05:06:01;;;;;;;13.95;10.00;;;;;;;6.36;59.78;98113.00;4957850;29;20240;-71
2021/04/28 05:08:27;;;;;;;14.57;10.00;;;;;;;6.39;59.36;98108.28;4958602;28;20292;-71
2021/04/28 05:10:54;;;;;;;13.07;9.00;;;;;;;6.55;58.65;98108.16;4958721;29;20199;-71
2021/04/28 05:13:21;;;;;;;14.93;9.35;;;;;;;6.33;59.27;98123.88;4958461;29;20193;-71
2021/04/28 05:15:47;;;;;;;11.98;9.25;;;;;;;6.30;59.59;98124.06;4958035;29;20193;-71
2021/04/28 05:18:13;;;;;;;9.10;8.10;;;;;;;6.25;59.87;98121.69;4958116;29;20316;-71
2021/04/28 05:20:39;;;;;;;10.55;8.32;;;;;;;6.27;60.21;98114.44;4957620;29;20289;-71
2021/04/28 05:23:06;;;;;;;14.13;7.43;;;;;;;6.23;60.01;98116.44;4958183;29;20659;-71
2021/04/28 05:25:33;;;;;;;14.20;8.13;;;;;;;6.37;59.78;98115.56;4958481;28;20507;-72
2021/04/28 05:27:59;;;;;;;11.00;8.80;;;;;;;6.36;59.68;98103.16;4957906;29;20631;-72
2021/04/28 05:30:25;;;;;;;12.80;8.05;;;;;;;6.40;59.05;98099.34;4958102;29;20189;-72
2021/04/28 05:32:51;;;;;;;12.27;7.93;;;;;;;6.25;59.60;98106.50;4957913;28;20299;-71
2021/04/28 05:35:18;;;;;;;10.30;8.25;;;;;;;6.63;58.35;98105.84;4957810;29;20193;-71
2021/04/28 05:37:44;;;;;;;15.68;7.15;;;;;;;6.99;56.69;98111.53;4958186;28;20228;-71
2021/04/28 05:40:13;;;;;;;9.52;7.68;;;;;;;7.02;56.55;98116.66;4958302;29;20628;-72
2021/04/28 05:42:39;;;;;;;10.20;7.25;;;;;;;7.09;55.78;98118.81;4957921;29;20278;-71
2021/04/28 05:45:07;;;;;;;10.55;7.95;;;;;;;7.25;55.64;98121.31;4957472;29;20201;-71
2021/04/28 05:47:34;;;;;;;8.40;7.35;;;;;;;7.10;55.10;98114.34;4957978;29;20201;-72
2021/04/28 05:50:00;;;;;;;17.80;8.07;;;;;;;7.17;55.77;98120.13;4957893;29;20196;-72
2021/04/28 05:52:26;;;;;;;11.38;8.10;;;;;;;7.34;55.07;98124.34;4957316;29;20201;-71
2021/04/28 05:54:52;;;;;;;10.80;7.03;;;;;;;7.55;54.07;98124.66;4957712;29;20547;-72
2021/04/28 05:57:20;;;;;;;8.95;7.30;;;;;;;7.73;54.04;98120.72;4957716;29;20228;-71
2021/04/28 05:59:46;;;;;;;41.63;20.27;;;;;;;7.72;53.84;98116.31;4957508;29;20192;-72
2021/04/28 06:02:13;;;;;;;24.38;11.60;;;;;;;7.96;53.13;98113.75;4957518;28;20204;-71
2021/04/28 06:04:39;;;;;;;17.85;9.13;;;;;;;8.15;52.93;98100.72;4957736;29;20325;-71
2021/04/28 06:07:05;;;;;;;16.27;8.43;;;;;;;8.40;52.34;98107.03;4957339;29;20225;-72
2021/04/28 06:09:32;;;;;;;20.90;11.05;;;;;;;8.52;52.02;98103.47;4956464;28;20226;-71
2021/04/28 06:11:59;;;;;;;9.05;8.10;;;;;;;8.61;51.62;98099.22;4957215;29;20232;-72
2021/04/28 06:14:26;;;;;;;10.27;8.07;;;;;;;8.76;51.36;98092.72;4957096;29;20192;-71
2021/04/28 06:16:52;;;;;;;14.15;9.57;;;;;;;8.77;51.26;98097.13;4957305;29;20317;-71
2021/04/28 06:19:18;;;;;;;15.63;9.65;;;;;;;8.98;50.74;98099.19;4956067;28;20205;-74
2021/04/28 06:21:44;;;;;;;10.73;7.68;;;;;;;9.13;50.13;98097.13;4956094;28;20277;-74
2021/04/28 06:24:11;;;;;;;11.10;7.72;;;;;;;9.28;49.98;98100.50;4956137;28;20261;-74
2021/04/28 06:26:39;;;;;;;17.77;9.60;;;;;;;9.54;49.25;98099.34;4955890;28;20205;-74
2021/04/28 06:29:05;;;;;;;16.90;9.68;;;;;;;9.74;48.74;98104.97;4955348;29;20252;-73
2021/04/28 06:31:32;;;;;;;11.63;10.30;;;;;;;9.86;48.51;98087.91;4955906;29;20202;-73
2021/04/28 06:33:58;;;;;;;13.25;8.02;;;;;;;9.82;48.24;98089.13;4955744;29;20281;-75
2021/04/28 06:36:24;;;;;;;12.40;6.93;;;;;;;9.95;47.43;98086.28;4955467;29;20196;-74
2021/04/28 06:38:51;;;;;;;14.65;8.63;;;;;;;10.24;47.33;98081.25;4955342;28;20208;-74
2021/04/28 06:41:17;;;;;;;14.82;9.77;;;;;;;10.35;46.46;98077.75;4955710;29;20188;-74
2021/04/28 06:43:43;;;;;;;13.25;8.52;;;;;;;10.43;46.23;98077.97;4955409;29;20639;-75
2021/04/28 06:46:09;;;;;;;13.65;8.20;;;;;;;10.55;46.10;98085.03;4955135;29;20282;-73
2021/04/28 06:48:36;;;;;;;12.98;10.13;;;;;;;10.87;45.27;98081.50;4954804;29;20212;-73
2021/04/28 06:51:02;;;;;;;19.15;10.57;;;;;;;11.21;44.47;98078.69;4955009;28;20207;-74
2021/04/28 06:53:29;;;;;;;12.88;9.52;;;;;;;11.38;43.84;98077.25;4954690;29;20192;-74
2021/04/28 06:55:56;;;;;;;20.45;10.50;;;;;;;11.50;43.36;98078.88;4955091;29;20204;-73
2021/04/28 06:58:22;;;;;;;14.15;9.35;;;;;;;11.83;42.71;98080.50;4955207;29;20213;-74
2021/04/28 07:00:50;;;;;;;12.45;9.25;;;;;;;12.10;41.94;98079.09;4954963;28;20287;-73
2021/04/28 07:03:16;;;;;;;12.45;8.27;;;;;;;12.35;41.18;98066.13;4955249;29;20199;-74
2021/04/28 07:05:43;;;;;;;15.43;10.55;;;;;;;12.54;40.91;98071.56;4954665;28;20238;-74
2021/04/28 07:08:09;;;;;;;12.57;10.07;;;;;;;12.70;40.49;98071.88;4955038;28;20637;-74
2021/04/28 07:10:36;;;;;;;15.70;13.95;;;;;;;12.75;40.20;98066.03;4955089;28;20681;-73
2021/04/28 07:13:05;;;;;;;14.85;10.07;;;;;;;12.80;40.09;98071.00;4955101;29;20205;-73
2021/04/28 07:15:31;;;;;;;12.63;9.75;;;;;;;12.81;40.12;98065.47;4954590;28;20223;-74
2021/04/28 07:17:57;;;;;;;14.45;9.15;;;;;;;12.80;39.82;98061.09;4954510;28;20224;-73
2021/04/28 07:20:25;;;;;;;12.48;8.73;;;;;;;12.90;39.27;98061.09;4954121;28;20280;-73
2021/04/28 07:22:52;;;;;;;12.95;8.38;;;;;;;13.22;38.96;98066.19;4954508;29;20252;-74
2021/04/28 07:25:19;;;;;;;11.27;9.02;;;;;;;13.23;38.92;98062.50;4954851;29;20620;-73
2021/04/28 07:27:47;;;;;;;12.60;8.88;;;;;;;13.59;38.36;98060.09;4953883;29;20208;-74
2021/04/28 07:30:15;;;;;;;12.32;9.30;;;;;;;13.70;38.02;98067.16;4954156;29;20291;-74
2021/04/28 07:32:41;;;;;;;13.48;9.52;;;;;;;13.84;37.86;98071.25;4954497;29;20619;-74
2021/04/28 07:35:09;;;;;;;12.93;9.43;;;;;;;13.73;38.00;98069.59;4954549;29;20281;-73
2021/04/28 07:37:36;;;;;;;10.32;7.60;;;;;;;13.76;37.68;98069.28;4954191;28;20609;-74
2021/04/28 07:40:04;;;;;;;13.88;9.75;;;;;;;14.18;37.00;98058.88;4954148;29;20283;-74
2021/04/28 07:42:30;;;;;;;12.55;9.80;;;;;;;14.32;36.67;98062.94;4954006;29;20197;-73
2021/04/28 07:44:56;;;;;;;10.25;9.15;;;;;;;14.38;37.05;98062.34;4953737;29;20248;-73
2021/04/28 07:47:22;;;;;;;16.73;9.63;;;;;;;14.76;36.27;98067.69;4953852;29;20225;-73
2021/04/28 07:49:48;;;;;;;13.65;8.90;;;;;;;14.93;36.05;98066.88;4953630;29;20292;-72
2021/04/28 07:52:15;;;;;;;11.95;8.32;;;;;;;14.98;35.70;98061.81;4954087;28;20213;-74
2021/04/28 07:54:41;;;;;;;22.65;10.38;;;;;;;15.14;35.69;98058.41;4954276;29;20616;-73
2021/04/28 07:57:08;;;;;;;15.38;9.20;;;;;;;15.26;35.37;98059.03;4953975;29;20329;-73
2021/04/28 07:59:35;;;;;;;16.05;10.65;;;;;;;15.45;34.96;98062.59;4953663;29;20227;-75
2021/04/28 08:02:01;;;;;;;12.13;9.52;;;;;;;15.31;35.20;98059.44;4954385;29;20516;-73
2021/04/28 08:04:27;;;;;;;13.27;8.85;;;;;;;15.47;34.93;98069.56;4953727;29;20278;-74
2021/04/28 08:06:53;;;;;;;14.90;9.00;;;;;;;15.35;35.04;98068.97;4953958;29;20286;-73
2021/04/28 08:09:20;;;;;;;12.55;8.95;;;;;;;15.69;34.73;98062.75;4953792;29;20247;-72
2021/04/28 08:11:46;;;;;;;16.33;9.52;;;;;;;15.74;34.60;98067.75;4954068;29;20201;-73
2021/04/28 08:14:13;;;;;;;13.45;9.15;;;;;;;15.79;34.61;98068.97;4953969;29;20870;-74
2021/04/28 08:16:39;;;;;;;16.02;10.00;;;;;;;16.17;34.01;98063.25;4953836;29;20298;-73
2021/04/28 08:19:05;;;;;;;19.38;9.98;;;;;;;16.22;33.57;98061.75;4953759;29;20227;-73
2021/04/28 08:21:32;;;;;;;14.32;9.45;;;;;;;16.36;33.33;98060.28;4953995;29;20200;-74
2021/04/28 08:23:58;;;;;;;15.15;9.55;;;;;;;16.52;32.96;98061.34;4954032;29;20653;-73
2021/04/28 08:26:24;;;;;;;17.52;11.27;;;;;;;16.63;32.92;98058.34;4953714;29;20196;-72
2021/04/28 08:28:50;;;;;;;15.40;10.93;;;;;;;16.59;32.87;98063.25;4953759;29;20211;-74
2021/04/28 08:31:19;;;;;;;13.52;10.10;;;;;;;16.18;33.07;98062.22;4952997;28;20240;-72
2021/04/28 08:33:46;;;;;;;11.90;9.45;;;;;;;16.01;33.70;98061.31;4953235;29;20196;-72
2021/04/28 08:36:13;;;;;;;10.45;9.20;;;;;;;16.23;33.17;98059.88;4953425;29;20208;-73
2021/04/28 08:38:39;;;;;;;13.80;9.32;;;;;;;16.56;32.63;98058.16;4953412;29;20298;-74
2021/04/28 08:41:08;;;;;;;16.08;9.77;;;;;;;16.96;32.09;98064.75;4953690;28;20209;-73
2021/04/28 08:43:34;;;;;;;13.13;10.18;;;;;;;17.13;31.57;98065.59;4953787;29;20308;-74
2021/04/28 08:46:01;;;;;;;12.80;10.30;;;;;;;17.18;31.62;98065.94;4953349;29;20629;-73
2021/04/28 08:48:29;;;;;;;14.65;11.52;;;;;;;17.36;31.45;98062.22;4953195;28;20223;-74
2021/04/28 08:50:56;;;;;;;16.17;11.07;;;;;;;17.37;31.06;98074.81;4953506;28;20279;-74
2021/04/28 08:53:24;;;;;;;14.10;10.82;;;;;;;17.19;31.36;98064.94;4953366;29;20220;-74
2021/04/28 08:55:51;;;;;;;13.18;10.88;;;;;;;17.30;31.25;98063.78;4953556;28;20569;-73
2021/04/28 08:58:20;;;;;;;15.48;10.73;;;;;;;17.59;31.04;98060.53;4952923;28;20615;-74
2021/04/28 09:00:46;;;;;;;12.85;10.23;;;;;;;17.66;31.14;98061.53;4953728;29;20299;-74
2021/04/28 09:03:16;;;;;;;15.75;10.65;;;;;;;17.69;30.97;98061.19;4953671;29;20185;-74
2021/04/28 09:05:44;;;;;;;14.23;9.90;;;;;;;17.86;30.92;98050.31;4953249;29;20235;-74
2021/04/28 09:08:12;;;;;;;14.85;10.88;;;;;;;17.99;30.74;98056.06;4953320;28;20239;-73
2021/04/28 09:10:40;;;;;;;13.20;9.85;;;;;;;17.97;30.60;98052.66;4953540;28;20317;-75
2021/04/28 09:13:09;;;;;;;16.58;10.48;;;;;;;18.20;30.39;98046.47;4952919;28;20667;-74
2021/04/28 09:15:39;;;;;;;17.70;11.35;;;;;;;18.01;30.67;98053.19;4953047;29;20211;-75
2021/04/28 09:18:08;;;;;;;12.75;10.20;;;;;;;18.10;30.75;98052.13;4953063;29;20703;-74
2021/04/28 09:20:37;;;;;;;16.63;11.15;;;;;;;18.03;30.93;98049.25;4952740;29;20211;-75
2021/04/28 09:23:11;;;;;;;11.20;9.63;;;;;;;18.23;30.48;98055.16;4952763;29;20218;-75
2021/04/28 09:25:41;;;;;;;16.45;10.88;;;;;;;18.41;30.20;98054.91;4953300;29;20197;-75
2021/04/28 09:28:26;;;;;;;14.57;10.15;;;;;;;18.21;30.04;98053.63;4952878;29;20674;-75
2021/04/28 09:31:10;;;;;;;19.08;11.50;;;;;;;18.57;29.98;98042.25;4953511;29;20235;-74
2021/04/28 09:33:49;;;;;;;14.38;11.15;;;;;;;18.76;29.80;98047.25;4952911;29;20233;-74
2021/04/28 09:36:17;;;;;;;16.73;12.55;;;;;;;19.00;29.77;98053.63;4952281;29;20193;-74
2021/04/28 09:38:50;;;;;;;16.83;10.65;;;;;;;18.91;29.40;98056.41;4952931;29;20307;-74
2021/04/28 09:41:37;;;;;;;14.52;11.00;;;;;;;19.11;29.21;98051.31;4952592;29;20284;-75
2021/04/28 09:44:23;;;;;;;17.70;10.65;;;;;;;18.95;29.14;98048.72;4955836;28;20190;-73
2021/04/28 09:47:05;;;;;;;13.75;10.45;;;;;;;19.09;28.79;98038.91;4956104;29;20225;-74
2021/04/28 09:50:02;;;;;;;15.05;10.23;;;;;;;18.99;28.45;98035.53;4956038;29;20265;-73
2021/04/28 09:52:46;;;;;;;17.10;11.20;;;;;;;19.22;28.08;98032.81;4956160;29;20318;-75
2021/04/28 09:55:14;;;;;;;14.77;11.23;;;;;;;19.02;28.08;98027.88;4956585;28;20192;-74
2021/04/28 09:57:42;;;;;;;14.63;11.43;;;;;;;19.05;27.99;98027.50;4955839;28;20210;-74
2021/04/28 10:00:19;;;;;;;15.82;11.75;;;;;;;19.28;28.12;98030.22;4956200;29;20250;-74
2021/04/28 10:02:51;;;;;;;15.90;12.88;;;;;;;19.55;27.93;98017.88;4956132;29;20245;-74
2021/04/28 10:05:20;;;;;;;14.63;10.30;;;;;;;19.11;28.47;98024.03;4955644;29;20602;-73
2021/04/28 10:07:46;;;;;;;11.57;10.35;;;;;;;18.91;28.06;98023.66;4955863;29;20284;-74
2021/04/28 10:10:17;;;;;;;13.00;10.43;;;;;;;18.78;28.11;98017.97;4956222;28;20286;-72
2021/04/28 10:12:44;;;;;;;13.75;10.85;;;;;;;19.20;27.74;98013.06;4955639;29;20191;-74
2021/04/28 10:15:11;;;;;;;17.98;10.88;;;;;;;19.48;27.11;98007.88;4955479;28;20257;-74
2021/04/28 10:17:39;;;;;;;13.25;10.30;;;;;;;19.43;27.09;98007.59;4955696;29;20662;-74
2021/04/28 10:20:07;;;;;;;12.98;11.57;;;;;;;19.45;27.24;98009.09;4955148;28;20206;-74
2021/04/28 10:22:34;;;;;;;16.25;11.60;;;;;;;18.91;28.14;98007.31;4955371;29;20209;-75
2021/04/28 10:25:05;;;;;;;15.30;12.73;;;;;;;19.25;28.06;98005.19;4955687;28;20273;-75
2021/04/28 10:27:32;;;;;;;13.60;10.60;;;;;;;19.35;27.66;98003.88;4955979;29;20274;-74
2021/04/28 10:29:59;;;;;;;13.55;10.32;;;;;;;19.37;27.54;97995.53;4955738;28;20238;-75
2021/04/28 10:32:27;;;;;;;13.18;10.40;;;;;;;19.46;27.45;97996.31;4955282;29;20191;-74
2021/04/28 10:34:58;;;;;;;19.02;10.45;;;;;;;19.67;27.05;98001.03;4954252;29;20226;-74
2021/04/28 10:37:27;;;;;;;14.45;9.88;;;;;;;19.86;26.54;97981.41;4955064;28;20233;-74
2021/04/28 10:39:54;;;;;;;15.05;10.85;;;;;;;19.45;26.92;97989.16;4955217;29;20208;-75
2021/04/28 10:42:29;;;;;;;18.17;10.70;;;;;;;19.77;26.72;97983.38;4955427;29;20706;-75
2021/04/28 10:44:56;;;;;;;12.75;9.43;;;;;;;19.85;26.68;97976.13;4953681;29;20290;-74
2021/04/28 10:47:28;;;;;;;14.25;10.35;;;;;;;20.08;26.59;97968.72;4955139;29;20361;-74
2021/04/28 10:50:20;;;;;;;16.38;9.98;;;;;;;20.23;26.45;97962.38;4955226;28;20579;-75
2021/04/28 10:52:53;;;;;;;12.77;9.90;;;;;;;20.24;26.45;97964.06;4955405;29;20526;-73
2021/04/28 10:55:49;;;;;;;19.13;10.73;;;;;;;20.30;26.30;97964.13;4953921;28;20662;-74
2021/04/28 10:58:41;;;;;;;14.68;9.93;;;;;;;20.14;26.50;97958.88;4954225;28;20208;-74
2021/04/28 11:01:17;;;;;;;12.55;10.30;;;;;;;20.34;26.38;97964.63;4954866;28;20195;-75
2021/04/28 11:03:45;;;;;;;14.07;9.43;;;;;;;20.46;25.82;97960.34;4954907;28;20228;-74
2021/04/28 11:06:30;;;;;;;11.68;9.10;;;;;;;20.80;24.81;97962.47;4954508;29;20235;-74
2021/04/28 11:09:11;;;;;;;12.03;8.97;;;;;;;20.95;25.15;97954.16;4954543;29;20193;-74
2021/04/28 11:11:41;;;;;;;11.32;9.18;;;;;;;20.98;25.15;97950.19;4955069;28;20926;-74
2021/04/28 11:14:47;;;;;;;14.73;9.53;;;;;;;20.93;25.24;97944.47;4953402;28;20286;-74
2021/04/28 11:17:38;;;;;;;11.13;9.33;;;;;;;20.75;25.02;97944.91;4954475;28;20584;-74
2021/04/28 11:20:21;;;;;;;10.95;8.50;;;;;;;20.59;24.77;97935.91;4954639;29;20450;-74
2021/04/28 11:22:55;;;;;;;10.57;9.47;;;;;;;20.53;24.68;97939.41;4954513;28;20212;-78
2021/04/28 11:25:22;;;;;;;11.00;9.00;;;;;;;20.82;24.55;97945.84;4953980;29;20432;-74
2021/04/28 11:28:03;;;;;;;11.80;8.77;;;;;;;20.78;24.71;97944.53;4954412;29;20420;-74
2021/04/28 11:30:42;;;;;;;10.93;8.43;;;;;;;20.57;25.05;97928.94;4953830;29;20455;-74
2021/04/28 11:33:34;;;;;;;8.38;7.13;;;;;;;20.89;24.01;97935.78;4943936;29;20184;-72
2021/04/28 11:36:13;;;;;;;11.35;6.80;;;;;;;21.09;23.42;97936.00;4954054;29;20219;-73
2021/04/28 11:38:43;;;;;;;16.90;8.03;;;;;;;21.21;23.03;97936.28;4953827;28;20307;-74